sensor_id;sensor_type;location;lat;lon;timestamp;temperature;humidity
76759;DHT22;65701;45.588;5.186;2022-12-18T08:09:21;0.13;82.36
76759;DHT22;65701;45.588;5.186;2022-12-18T08:11:47;0.25;82.30
76759;DHT22;65701;45.588;5.186;2022-12-18T08:14:12;0.40;82.32
76759;DHT22;65701;45.588;5.186;2022-12-18T08:16:38;0.57;82.29
76759;DHT22;65701;45.588;5.186;2022-12-18T08:19:04;0.69;82.21
76759;DHT22;65701;45.588;5.186;2022-12-18T08:21:31;0.75;82.00
76759;DHT22;65701;45.588;5.186;2022-12-18T08:23:59;0.90;82.08
76759;DHT22;65701;45.588;5.186;2022-12-18T08:26:27;1.00;82.00
76759;DHT22;65701;45.588;5.186;2022-12-18T08:28:57;1.13;81.84
76759;DHT22;65701;45.588;5.186;2022-12-18T08:31:23;1.26;81.74
76759;DHT22;65701;45.588;5.186;2022-12-18T08:33:51;1.35;81.58
76759;DHT22;65701;45.588;5.186;2022-12-18T08:36:17;1.44;81.51
76759;DHT22;65701;45.588;5.186;2022-12-18T08:38:43;1.58;81.44
76759;DHT22;65701;45.588;5.186;2022-12-18T08:41:11;1.69;81.34
76759;DHT22;65701;45.588;5.186;2022-12-18T08:43:36;1.75;81.23
76759;DHT22;65701;45.588;5.186;2022-12-18T08:46:22;1.89;81.11
76759;DHT22;65701;45.588;5.186;2022-12-18T08:48:51;2.04;80.99
76759;DHT22;65701;45.588;5.186;2022-12-18T08:51:17;2.13;80.94
76759;DHT22;65701;45.588;5.186;2022-12-18T08:53:43;2.24;80.80
76759;DHT22;65701;45.588;5.186;2022-12-18T08:56:09;2.40;80.78
76759;DHT22;65701;45.588;5.186;2022-12-18T08:58:35;2.49;80.74
76759;DHT22;65701;45.588;5.186;2022-12-18T09:01:04;2.63;80.78
76759;DHT22;65701;45.588;5.186;2022-12-18T09:03:33;2.73;80.62
76759;DHT22;65701;45.588;5.186;2022-12-18T09:05:59;2.82;80.46
76759;DHT22;65701;45.588;5.186;2022-12-18T09:08:27;2.90;80.11
76759;DHT22;65701;45.588;5.186;2022-12-18T09:10:56;2.97;80.04
76759;DHT22;65701;45.588;5.186;2022-12-18T09:13:22;3.07;79.82
76759;DHT22;65701;45.588;5.186;2022-12-18T09:15:50;3.14;79.81
76759;DHT22;65701;45.588;5.186;2022-12-18T09:18:17;3.27;79.80
76759;DHT22;65701;45.588;5.186;2022-12-18T09:20:45;3.41;79.96
76759;DHT22;65701;45.588;5.186;2022-12-18T09:23:18;3.50;79.78
76759;DHT22;65701;45.588;5.186;2022-12-18T09:25:44;3.63;79.85
76759;DHT22;65701;45.588;5.186;2022-12-18T09:28:12;3.73;79.76
76759;DHT22;65701;45.588;5.186;2022-12-18T09:30:40;3.85;79.50
76759;DHT22;65701;45.588;5.186;2022-12-18T09:33:05;3.94;79.41
76759;DHT22;65701;45.588;5.186;2022-12-18T09:35:31;4.01;79.22
76759;DHT22;65701;45.588;5.186;2022-12-18T09:37:56;4.10;79.16
76759;DHT22;65701;45.588;5.186;2022-12-18T09:40:25;4.11;78.90
76759;DHT22;65701;45.588;5.186;2022-12-18T09:42:57;4.24;79.05
76759;DHT22;65701;45.588;5.186;2022-12-18T09:45:25;4.33;79.14
76759;DHT22;65701;45.588;5.186;2022-12-18T09:47:52;4.38;79.19
76759;DHT22;65701;45.588;5.186;2022-12-18T09:50:33;4.51;78.95
76759;DHT22;65701;45.588;5.186;2022-12-18T09:53:06;4.55;78.99
76759;DHT22;65701;45.588;5.186;2022-12-18T09:55:45;4.59;78.80
76759;DHT22;65701;45.588;5.186;2022-12-18T10:01:23;4.68;78.22
76759;DHT22;65701;45.588;5.186;2022-12-18T10:03:50;4.70;78.14
76759;DHT22;65701;45.588;5.186;2022-12-18T10:06:21;4.79;78.24
76759;DHT22;65701;45.588;5.186;2022-12-18T10:09:09;4.89;78.35
76759;DHT22;65701;45.588;5.186;2022-12-18T10:19:57;5.18;78.71
76759;DHT22;65701;45.588;5.186;2022-12-18T10:25:05;5.38;78.71
76759;DHT22;65701;45.588;5.186;2022-12-18T10:27:32;5.46;78.66
76759;DHT22;65701;45.588;5.186;2022-12-18T10:29:57;5.54;78.58
76759;DHT22;65701;45.588;5.186;2022-12-18T10:32:29;5.63;78.32
76759;DHT22;65701;45.588;5.186;2022-12-18T10:34:56;5.73;78.29
76759;DHT22;65701;45.588;5.186;2022-12-18T10:37:25;5.79;78.30
76759;DHT22;65701;45.588;5.186;2022-12-18T10:42:33;6.00;78.21
76759;DHT22;65701;45.588;5.186;2022-12-18T10:45:12;6.10;78.20
76759;DHT22;65701;45.588;5.186;2022-12-18T10:47:49;6.24;78.45
76759;DHT22;65701;45.588;5.186;2022-12-18T10:50:33;6.44;79.35
76759;DHT22;65701;45.588;5.186;2022-12-18T10:53:01;6.68;79.97
76759;DHT22;65701;45.588;5.186;2022-12-18T10:55:37;6.87;79.72
76759;DHT22;65701;45.588;5.186;2022-12-18T10:58:26;7.15;80.06
76759;DHT22;65701;45.588;5.186;2022-12-18T11:01:14;7.41;80.21
76759;DHT22;65701;45.588;5.186;2022-12-18T11:03:41;7.63;80.06
76759;DHT22;65701;45.588;5.186;2022-12-18T11:06:16;7.86;79.98
76759;DHT22;65701;45.588;5.186;2022-12-18T11:08:56;8.03;79.71
76759;DHT22;65701;45.588;5.186;2022-12-18T11:11:24;8.05;78.59
76759;DHT22;65701;45.588;5.186;2022-12-18T11:14:03;8.07;77.31
76759;DHT22;65701;45.588;5.186;2022-12-18T11:16:32;8.05;76.86
76759;DHT22;65701;45.588;5.186;2022-12-18T11:19:36;8.15;77.45
76759;DHT22;65701;45.588;5.186;2022-12-18T11:25:19;8.44;78.65
76759;DHT22;65701;45.588;5.186;2022-12-18T11:27:53;8.56;78.72
76759;DHT22;65701;45.588;5.186;2022-12-18T11:32:47;8.75;78.52
76759;DHT22;65701;45.588;5.186;2022-12-18T11:37:47;8.99;78.54
76759;DHT22;65701;45.588;5.186;2022-12-18T11:40:21;9.11;78.52
76759;DHT22;65701;45.588;5.186;2022-12-18T11:45:28;9.18;78.19
76759;DHT22;65701;45.588;5.186;2022-12-18T11:48:36;9.24;77.74
76759;DHT22;65701;45.588;5.186;2022-12-18T11:50:53;9.32;77.73
76759;DHT22;65701;45.588;5.186;2022-12-18T11:53:20;9.42;77.78
76759;DHT22;65701;45.588;5.186;2022-12-18T11:58:48;9.50;77.68
76759;DHT22;65701;45.588;5.186;2022-12-18T12:23:41;9.91;76.84
76759;DHT22;65701;45.588;5.186;2022-12-18T12:29:26;10.07;76.67
76759;DHT22;65701;45.588;5.186;2022-12-18T12:32:05;10.10;76.59
76759;DHT22;65701;45.588;5.186;2022-12-18T12:37:39;10.10;76.46
76759;DHT22;65701;45.588;5.186;2022-12-18T12:40:13;10.21;76.35
76759;DHT22;65701;45.588;5.186;2022-12-18T12:42:49;10.15;76.38
76759;DHT22;65701;45.588;5.186;2022-12-18T12:46:11;10.28;76.33
76759;DHT22;65701;45.588;5.186;2022-12-18T12:48:44;10.31;76.42
76759;DHT22;65701;45.588;5.186;2022-12-18T12:53:49;10.38;76.08
76759;DHT22;65701;45.588;5.186;2022-12-18T12:56:20;10.35;75.83
76759;DHT22;65701;45.588;5.186;2022-12-18T13:05:06;10.34;75.78
76759;DHT22;65701;45.588;5.186;2022-12-18T13:08:09;10.37;75.91
76759;DHT22;65701;45.588;5.186;2022-12-18T13:10:42;10.37;75.95
76759;DHT22;65701;45.588;5.186;2022-12-18T13:13:16;10.35;75.85
76759;DHT22;65701;45.588;5.186;2022-12-18T13:15:45;10.32;75.70
76759;DHT22;65701;45.588;5.186;2022-12-18T13:18:20;10.32;75.53
76759;DHT22;65701;45.588;5.186;2022-12-18T13:23:44;10.35;75.74
76759;DHT22;65701;45.588;5.186;2022-12-18T13:28:55;10.37;75.63
76759;DHT22;65701;45.588;5.186;2022-12-18T13:36:41;10.37;75.48
76759;DHT22;65701;45.588;5.186;2022-12-18T13:44:39;10.41;75.36
76759;DHT22;65701;45.588;5.186;2022-12-18T13:47:26;10.41;75.26
76759;DHT22;65701;45.588;5.186;2022-12-18T13:50:22;10.38;75.05
76759;DHT22;65701;45.588;5.186;2022-12-18T13:52:48;10.37;75.15
76759;DHT22;65701;45.588;5.186;2022-12-18T13:55:19;10.39;75.11
76759;DHT22;65701;45.588;5.186;2022-12-18T13:57:46;10.39;75.09
76759;DHT22;65701;45.588;5.186;2022-12-18T14:00:27;10.42;74.85
76759;DHT22;65701;45.588;5.186;2022-12-18T14:02:54;10.42;74.84
76759;DHT22;65701;45.588;5.186;2022-12-18T14:05:31;10.37;74.41
76759;DHT22;65701;45.588;5.186;2022-12-18T14:08:11;10.41;74.17
76759;DHT22;65701;45.588;5.186;2022-12-18T14:10:46;10.44;74.21
76759;DHT22;65701;45.588;5.186;2022-12-18T14:15:55;10.39;74.12
76759;DHT22;65701;45.588;5.186;2022-12-18T14:18:46;10.38;74.00
76759;DHT22;65701;45.588;5.186;2022-12-18T14:21:25;10.35;73.62
76759;DHT22;65701;45.588;5.186;2022-12-18T14:24:14;10.35;73.36
76759;DHT22;65701;45.588;5.186;2022-12-18T14:26:41;10.39;73.27
76759;DHT22;65701;45.588;5.186;2022-12-18T14:29:26;10.35;73.17
76759;DHT22;65701;45.588;5.186;2022-12-18T14:32:13;10.32;72.72
76759;DHT22;65701;45.588;5.186;2022-12-18T14:34:41;10.32;72.58
76759;DHT22;65701;45.588;5.186;2022-12-18T14:37:11;10.35;72.45
76759;DHT22;65701;45.588;5.186;2022-12-18T14:39:59;10.34;72.23
76759;DHT22;65701;45.588;5.186;2022-12-18T14:42:35;10.34;72.17
76759;DHT22;65701;45.588;5.186;2022-12-18T14:45:37;10.38;72.26
76759;DHT22;65701;45.588;5.186;2022-12-18T14:50:37;10.30;72.02
76759;DHT22;65701;45.588;5.186;2022-12-18T14:53:04;10.35;72.09
76759;DHT22;65701;45.588;5.186;2022-12-18T14:55:32;10.30;72.11
76759;DHT22;65701;45.588;5.186;2022-12-18T14:57:59;10.28;72.19
76759;DHT22;65701;45.588;5.186;2022-12-18T15:00:26;10.22;72.16
76759;DHT22;65701;45.588;5.186;2022-12-18T15:02:57;10.21;72.06
76759;DHT22;65701;45.588;5.186;2022-12-18T15:05:30;10.25;72.12
76759;DHT22;65701;45.588;5.186;2022-12-18T15:08:02;10.21;72.19
76759;DHT22;65701;45.588;5.186;2022-12-18T15:10:34;10.21;72.37
76759;DHT22;65701;45.588;5.186;2022-12-18T15:20:46;10.15;72.34
76759;DHT22;65701;45.588;5.186;2022-12-18T15:26:13;10.08;71.93
76759;DHT22;65701;45.588;5.186;2022-12-18T15:28:55;10.13;71.61
76759;DHT22;65701;45.588;5.186;2022-12-18T15:31:36;10.13;71.50
76759;DHT22;65701;45.588;5.186;2022-12-18T15:36:35;10.11;71.30
76759;DHT22;65701;45.588;5.186;2022-12-18T15:39:03;10.10;71.40
76759;DHT22;65701;45.588;5.186;2022-12-18T15:41:35;10.15;71.60
76759;DHT22;65701;45.588;5.186;2022-12-18T15:44:16;10.15;71.71
76759;DHT22;65701;45.588;5.186;2022-12-18T15:46:50;10.17;71.62
76759;DHT22;65701;45.588;5.186;2022-12-18T15:49:17;10.17;71.59
76759;DHT22;65701;45.588;5.186;2022-12-18T15:51:44;10.18;71.67
76759;DHT22;65701;45.588;5.186;2022-12-18T15:54:13;10.20;71.69
76759;DHT22;65701;45.588;5.186;2022-12-18T15:56:42;10.18;71.57
76759;DHT22;65701;45.588;5.186;2022-12-18T15:59:27;10.20;70.89
76759;DHT22;65701;45.588;5.186;2022-12-18T16:01:57;10.20;70.67
76759;DHT22;65701;45.588;5.186;2022-12-18T16:04:24;10.21;70.37
76759;DHT22;65701;45.588;5.186;2022-12-18T16:06:54;10.24;70.68
76759;DHT22;65701;45.588;5.186;2022-12-18T16:09:24;10.30;70.60
76759;DHT22;65701;45.588;5.186;2022-12-18T16:11:50;10.27;70.44
76759;DHT22;65701;45.588;5.186;2022-12-18T16:16:48;10.30;70.03
76759;DHT22;65701;45.588;5.186;2022-12-18T16:19:15;10.32;70.24
76759;DHT22;65701;45.588;5.186;2022-12-18T16:21:42;10.35;70.10
76759;DHT22;65701;45.588;5.186;2022-12-18T16:24:14;10.37;70.15
76759;DHT22;65701;45.588;5.186;2022-12-18T16:26:41;10.41;69.68
76759;DHT22;65701;45.588;5.186;2022-12-18T16:29:07;10.49;69.54
76759;DHT22;65701;45.588;5.186;2022-12-18T16:31:33;10.55;69.80
76759;DHT22;65701;45.588;5.186;2022-12-18T16:36:49;10.38;69.46
76759;DHT22;65701;45.588;5.186;2022-12-18T16:39:15;10.14;69.46
76759;DHT22;65701;45.588;5.186;2022-12-18T16:41:41;9.72;69.69
76759;DHT22;65701;45.588;5.186;2022-12-18T16:44:07;9.60;70.24
76759;DHT22;65701;45.588;5.186;2022-12-18T16:46:32;9.39;70.59
76759;DHT22;65701;45.588;5.186;2022-12-18T16:48:59;9.25;70.95
76759;DHT22;65701;45.588;5.186;2022-12-18T16:51:25;8.99;70.94
76759;DHT22;65701;45.588;5.186;2022-12-18T16:53:52;8.97;71.24
76759;DHT22;65701;45.588;5.186;2022-12-18T16:56:18;8.77;71.59
76759;DHT22;65701;45.588;5.186;2022-12-18T16:58:50;8.77;71.84
76759;DHT22;65701;45.588;5.186;2022-12-18T17:01:15;8.58;71.95
76759;DHT22;65701;45.588;5.186;2022-12-18T17:03:41;8.55;72.23
76759;DHT22;65701;45.588;5.186;2022-12-18T17:06:06;8.42;72.48
76759;DHT22;65701;45.588;5.186;2022-12-18T17:08:32;8.31;72.68
76759;DHT22;65701;45.588;5.186;2022-12-18T17:11:06;8.15;72.96
76759;DHT22;65701;45.588;5.186;2022-12-18T17:13:32;8.01;73.32
76759;DHT22;65701;45.588;5.186;2022-12-18T17:16:03;8.03;73.60
76759;DHT22;65701;45.588;5.186;2022-12-18T17:18:29;8.05;73.63
76759;DHT22;65701;45.588;5.186;2022-12-18T17:20:59;7.94;73.63
76759;DHT22;65701;45.588;5.186;2022-12-18T17:23:26;7.89;73.91
76759;DHT22;65701;45.588;5.186;2022-12-18T17:25:58;7.89;74.06
76759;DHT22;65701;45.588;5.186;2022-12-18T17:28:27;7.90;74.11
76759;DHT22;65701;45.588;5.186;2022-12-18T17:30:54;7.77;74.16
76759;DHT22;65701;45.588;5.186;2022-12-18T17:33:20;7.83;74.26
76759;DHT22;65701;45.588;5.186;2022-12-18T17:35:46;7.79;74.22
76759;DHT22;65701;45.588;5.186;2022-12-18T17:38:12;7.69;74.24
76759;DHT22;65701;45.588;5.186;2022-12-18T17:40:38;7.70;74.22
76759;DHT22;65701;45.588;5.186;2022-12-18T17:43:08;7.63;74.23
76759;DHT22;65701;45.588;5.186;2022-12-18T17:45:38;7.65;74.27
76759;DHT22;65701;45.588;5.186;2022-12-18T17:48:04;7.66;74.34
76759;DHT22;65701;45.588;5.186;2022-12-18T17:50:34;7.65;74.35
76759;DHT22;65701;45.588;5.186;2022-12-18T17:52:59;7.63;74.33
76759;DHT22;65701;45.588;5.186;2022-12-18T17:55:25;7.54;74.38
76759;DHT22;65701;45.588;5.186;2022-12-18T17:57:52;7.54;74.48
76759;DHT22;65701;45.588;5.186;2022-12-18T18:00:18;7.51;74.57
76759;DHT22;65701;45.588;5.186;2022-12-18T18:02:44;7.46;74.71
76759;DHT22;65701;45.588;5.186;2022-12-18T18:05:09;7.46;74.81
76759;DHT22;65701;45.588;5.186;2022-12-18T18:07:36;7.48;74.90
76759;DHT22;65701;45.588;5.186;2022-12-18T18:10:02;7.44;74.98
76759;DHT22;65701;45.588;5.186;2022-12-18T18:12:28;7.39;75.12
76759;DHT22;65701;45.588;5.186;2022-12-18T18:15:12;7.34;75.28
76759;DHT22;65701;45.588;5.186;2022-12-18T18:17:37;7.35;75.43
76759;DHT22;65701;45.588;5.186;2022-12-18T18:20:03;7.36;75.82
76759;DHT22;65701;45.588;5.186;2022-12-18T18:22:30;7.42;76.01
76759;DHT22;65701;45.588;5.186;2022-12-18T18:24:56;7.48;76.30
76759;DHT22;65701;45.588;5.186;2022-12-18T18:27:22;7.61;76.71
76759;DHT22;65701;45.588;5.186;2022-12-18T18:29:47;7.70;77.00
76759;DHT22;65701;45.588;5.186;2022-12-18T18:32:13;7.83;77.10
76759;DHT22;65701;45.588;5.186;2022-12-18T18:34:38;7.90;77.39
76759;DHT22;65701;45.588;5.186;2022-12-18T18:37:04;8.04;77.57
76759;DHT22;65701;45.588;5.186;2022-12-18T18:39:30;8.15;77.70
76759;DHT22;65701;45.588;5.186;2022-12-18T18:41:55;8.22;77.57
76759;DHT22;65701;45.588;5.186;2022-12-18T18:44:21;8.29;77.43
76759;DHT22;65701;45.588;5.186;2022-12-18T18:46:46;8.38;77.28
76759;DHT22;65701;45.588;5.186;2022-12-18T18:49:13;8.44;77.23
76759;DHT22;65701;45.588;5.186;2022-12-18T18:51:40;8.48;77.16
76759;DHT22;65701;45.588;5.186;2022-12-18T18:54:05;8.58;77.20
76759;DHT22;65701;45.588;5.186;2022-12-18T18:56:31;8.59;77.10
76759;DHT22;65701;45.588;5.186;2022-12-18T18:58:57;8.63;77.01
76759;DHT22;65701;45.588;5.186;2022-12-18T19:01:24;8.67;76.92
76759;DHT22;65701;45.588;5.186;2022-12-18T19:03:50;8.52;76.09
76759;DHT22;65701;45.588;5.186;2022-12-18T19:06:19;8.50;75.78
76759;DHT22;65701;45.588;5.186;2022-12-18T19:08:45;8.53;76.28
76759;DHT22;65701;45.588;5.186;2022-12-18T19:11:11;8.63;76.66
76759;DHT22;65701;45.588;5.186;2022-12-18T19:13:57;8.69;76.77
76759;DHT22;65701;45.588;5.186;2022-12-18T19:16:23;8.72;76.74
76759;DHT22;65701;45.588;5.186;2022-12-18T19:18:49;8.69;76.17
76759;DHT22;65701;45.588;5.186;2022-12-18T19:21:15;8.62;76.02
76759;DHT22;65701;45.588;5.186;2022-12-18T19:23:40;8.60;75.84
76759;DHT22;65701;45.588;5.186;2022-12-18T19:26:07;8.53;75.49
76759;DHT22;65701;45.588;5.186;2022-12-18T19:28:33;8.55;75.46
76759;DHT22;65701;45.588;5.186;2022-12-18T19:31:02;8.44;75.60
76759;DHT22;65701;45.588;5.186;2022-12-18T19:33:29;8.52;76.02
76759;DHT22;65701;45.588;5.186;2022-12-18T19:35:55;8.59;76.44
76759;DHT22;65701;45.588;5.186;2022-12-18T19:38:20;8.65;76.74
76759;DHT22;65701;45.588;5.186;2022-12-18T19:40:46;8.69;76.85
76759;DHT22;65701;45.588;5.186;2022-12-18T19:43:16;8.76;76.92
76759;DHT22;65701;45.588;5.186;2022-12-18T19:45:42;8.83;76.88
76759;DHT22;65701;45.588;5.186;2022-12-18T19:48:08;8.84;76.75
76759;DHT22;65701;45.588;5.186;2022-12-18T19:50:39;8.88;76.74
76759;DHT22;65701;45.588;5.186;2022-12-18T19:53:05;8.91;76.70
76759;DHT22;65701;45.588;5.186;2022-12-18T19:55:30;8.96;76.62
76759;DHT22;65701;45.588;5.186;2022-12-18T19:57:56;9.00;76.62
76759;DHT22;65701;45.588;5.186;2022-12-18T20:00:22;9.01;76.53
76759;DHT22;65701;45.588;5.186;2022-12-18T20:02:48;9.03;76.46
76759;DHT22;65701;45.588;5.186;2022-12-18T20:05:13;9.05;76.38
76759;DHT22;65701;45.588;5.186;2022-12-18T20:07:39;9.05;76.35
76759;DHT22;65701;45.588;5.186;2022-12-18T20:10:06;9.13;76.13
76759;DHT22;65701;45.588;5.186;2022-12-18T20:12:32;9.10;76.11
76759;DHT22;65701;45.588;5.186;2022-12-18T20:14:57;9.14;76.04
76759;DHT22;65701;45.588;5.186;2022-12-18T20:17:23;9.17;75.99
76759;DHT22;65701;45.588;5.186;2022-12-18T20:19:48;9.13;75.97
76759;DHT22;65701;45.588;5.186;2022-12-18T20:22:14;9.15;75.94
76759;DHT22;65701;45.588;5.186;2022-12-18T20:24:39;9.15;75.88
76759;DHT22;65701;45.588;5.186;2022-12-18T20:27:05;9.14;75.88
76759;DHT22;65701;45.588;5.186;2022-12-18T20:29:30;9.18;75.90
76759;DHT22;65701;45.588;5.186;2022-12-18T20:31:56;9.17;75.92
76759;DHT22;65701;45.588;5.186;2022-12-18T20:34:21;9.21;75.93
76759;DHT22;65701;45.588;5.186;2022-12-18T20:36:47;9.20;75.96
76759;DHT22;65701;45.588;5.186;2022-12-18T20:39:12;9.15;75.92
76759;DHT22;65701;45.588;5.186;2022-12-18T20:41:38;9.18;75.95
76759;DHT22;65701;45.588;5.186;2022-12-18T20:44:06;9.17;75.95
76759;DHT22;65701;45.588;5.186;2022-12-18T20:46:32;9.15;75.99
76759;DHT22;65701;45.588;5.186;2022-12-18T20:48:57;9.18;75.94
76759;DHT22;65701;45.588;5.186;2022-12-18T20:51:23;9.18;75.92
76759;DHT22;65701;45.588;5.186;2022-12-18T20:53:48;9.20;75.96
76759;DHT22;65701;45.588;5.186;2022-12-18T20:56:19;9.20;75.89
76759;DHT22;65701;45.588;5.186;2022-12-18T20:58:45;9.20;75.75
76759;DHT22;65701;45.588;5.186;2022-12-18T21:01:14;9.17;75.74
76759;DHT22;65701;45.588;5.186;2022-12-18T21:03:41;9.18;75.83
76759;DHT22;65701;45.588;5.186;2022-12-18T21:06:08;9.14;75.87
76759;DHT22;65701;45.588;5.186;2022-12-18T21:08:35;9.14;75.99
76759;DHT22;65701;45.588;5.186;2022-12-18T21:11:31;9.14;75.99
76759;DHT22;65701;45.588;5.186;2022-12-18T21:14:21;9.10;76.05
76759;DHT22;65701;45.588;5.186;2022-12-18T21:16:47;9.07;76.11
